createdAt,value
2022-09-23T00:01:16.223Z,4.85
2022-09-23T00:03:46.194Z,3.83
2022-09-23T00:06:16.963Z,3.88
2022-09-23T00:08:45.932Z,3.15
2022-09-23T00:11:15.765Z,3.47
2022-09-23T00:13:45.662Z,5.05
2022-09-23T00:16:15.737Z,3.03
2022-09-23T00:18:44.178Z,6.00
2022-09-23T00:21:13.817Z,3.33
2022-09-23T00:23:42.789Z,2.20
2022-09-23T00:26:13.539Z,2.70
2022-09-23T00:28:41.453Z,3.83
2022-09-23T00:31:11.177Z,5.60
2022-09-23T00:33:40.444Z,5.50
2022-09-23T00:36:11.193Z,2.60
2022-09-23T00:38:39.028Z,3.15
2022-09-23T00:41:07.456Z,7.13
2022-09-23T00:43:41.585Z,3.15
2022-09-23T00:46:11.287Z,4.15
2022-09-23T00:48:42.505Z,2.83
2022-09-23T00:51:17.722Z,2.80
2022-09-23T00:53:46.720Z,3.55
2022-09-23T00:56:15.383Z,3.97
2022-09-23T00:58:47.557Z,2.85
2022-09-23T01:01:15.281Z,3.45
2022-09-23T01:03:45.693Z,4.13
2022-09-23T01:06:14.805Z,2.97
2022-09-23T01:08:45.426Z,7.30
2022-09-23T01:11:25.103Z,3.60
2022-09-23T01:14:03.066Z,2.28
2022-09-23T01:16:39.556Z,3.45
2022-09-23T01:19:22.893Z,3.50
2022-09-23T01:21:58.146Z,5.05
2022-09-23T01:24:55.467Z,2.90
2022-09-23T01:27:43.160Z,2.78
2022-09-23T01:30:20.747Z,2.65
2022-09-23T01:33:04.599Z,3.55
2022-09-23T01:35:43.703Z,3.20
2022-09-23T01:38:21.649Z,1.75
2022-09-23T01:40:59.432Z,4.60
2022-09-23T01:43:38.283Z,3.05
2022-09-23T01:46:11.807Z,2.40
2022-09-23T01:48:47.114Z,2.70
2022-09-23T01:51:20.766Z,2.30
2022-09-23T01:53:53.239Z,2.03
2022-09-23T01:56:25.335Z,6.50
2022-09-23T01:59:01.183Z,2.00
2022-09-23T02:01:34.060Z,2.72
2022-09-23T02:04:08.450Z,2.00
2022-09-23T02:06:42.487Z,2.60
2022-09-23T02:09:13.371Z,2.65
2022-09-23T02:11:45.102Z,5.30
2022-09-23T02:14:18.355Z,3.30
2022-09-23T02:16:48.597Z,2.60
2022-09-23T02:19:25.188Z,3.20
2022-09-23T02:21:56.430Z,6.55
2022-09-23T02:24:30.721Z,2.63
2022-09-23T02:27:06.239Z,3.23
2022-09-23T02:29:45.463Z,2.85
2022-09-23T02:32:18.855Z,4.10
2022-09-23T02:34:58.044Z,3.80
2022-09-23T02:37:37.450Z,4.93
2022-09-23T02:40:15.604Z,3.13
2022-09-23T02:42:51.690Z,5.70
2022-09-23T02:45:19.570Z,2.20
2022-09-23T02:47:53.027Z,6.03
2022-09-23T02:50:22.643Z,4.37
2022-09-23T02:52:50.900Z,3.92
2022-09-23T02:55:23.322Z,2.87
2022-09-23T02:57:53.320Z,2.83
2022-09-23T03:00:21.292Z,4.28
2022-09-23T03:03:06.695Z,5.20
2022-09-23T03:05:41.764Z,3.13
2022-09-23T03:08:25.782Z,3.28
2022-09-23T03:11:04.224Z,2.40
2022-09-23T03:13:39.274Z,2.93
2022-09-23T03:16:17.133Z,2.78
2022-09-23T03:18:50.278Z,2.13
2022-09-23T03:21:26.178Z,4.70
2022-09-23T03:23:57.059Z,3.03
2022-09-23T03:26:29.898Z,4.55
2022-09-23T03:28:58.642Z,4.18
2022-09-23T03:31:26.518Z,3.10
2022-09-23T03:33:59.907Z,3.78
2022-09-23T03:36:52.043Z,5.32
2022-09-23T03:39:30.955Z,6.93
2022-09-23T03:42:03.169Z,3.50
2022-09-23T03:44:31.935Z,2.75
2022-09-23T03:47:00.335Z,3.55
2022-09-23T03:49:32.959Z,4.05
2022-09-23T03:52:03.410Z,2.53
2022-09-23T03:54:32.268Z,2.60
2022-09-23T03:57:00.960Z,4.65
2022-09-23T03:59:30.242Z,2.58
2022-09-23T04:01:59.456Z,3.30
2022-09-23T04:04:27.792Z,5.40
2022-09-23T04:06:55.460Z,4.03
2022-09-23T04:09:24.930Z,2.17
2022-09-23T04:11:53.357Z,2.83
2022-09-23T04:14:22.556Z,2.50
2022-09-23T04:16:51.389Z,3.47
2022-09-23T04:19:19.340Z,4.07
2022-09-23T04:21:47.137Z,3.78
2022-09-23T04:24:15.653Z,3.30
2022-09-23T04:26:45.406Z,1.77
2022-09-23T04:29:13.040Z,8.93
2022-09-23T04:31:40.739Z,2.30
2022-09-23T04:34:08.502Z,4.20
2022-09-23T04:36:36.152Z,3.08
2022-09-23T04:39:04.095Z,3.85
2022-09-23T04:41:31.799Z,2.35
2022-09-23T04:44:00.825Z,2.70
2022-09-23T04:46:28.618Z,3.13
2022-09-23T04:48:56.266Z,5.88
2022-09-23T04:51:26.274Z,11.15
2022-09-23T04:53:55.314Z,12.80
2022-09-23T04:56:24.947Z,6.10
2022-09-23T04:58:53.273Z,5.57
2022-09-23T05:01:24.118Z,5.30
2022-09-23T05:03:53.397Z,4.90
2022-09-23T05:06:21.463Z,3.70
2022-09-23T05:08:51.523Z,4.15
2022-09-23T05:11:19.702Z,3.83
2022-09-23T05:13:48.788Z,5.03
2022-09-23T05:16:17.278Z,3.38
2022-09-23T05:18:47.388Z,3.40
2022-09-23T05:21:16.917Z,4.68
2022-09-23T05:23:48.761Z,4.10
2022-09-23T05:26:16.726Z,3.90
2022-09-23T05:28:44.599Z,3.50
2022-09-23T05:31:19.652Z,3.63
2022-09-23T05:33:52.832Z,5.97
2022-09-23T05:36:21.489Z,5.07
2022-09-23T05:38:49.882Z,4.90
2022-09-23T05:41:19.323Z,3.78
2022-09-23T05:43:47.223Z,9.73
2022-09-23T05:46:16.591Z,8.13
2022-09-23T05:48:45.778Z,3.20
2022-09-23T05:51:17.401Z,3.70
2022-09-23T05:53:45.800Z,3.10
2022-09-23T05:56:13.889Z,3.95
2022-09-23T05:58:41.586Z,7.13
2022-09-23T06:01:13.301Z,7.03
2022-09-23T06:03:41.406Z,4.68
2022-09-23T06:06:14.424Z,4.20
2022-09-23T06:08:43.727Z,2.67
2022-09-23T06:11:12.302Z,2.63
2022-09-23T06:13:40.785Z,4.20
2022-09-23T06:16:10.610Z,2.90
2022-09-23T06:18:40.129Z,4.37
2022-09-23T06:21:08.212Z,3.67
2022-09-23T06:23:39.183Z,5.23
2022-09-23T06:26:11.800Z,3.23
2022-09-23T06:28:41.146Z,6.80
2022-09-23T06:31:13.628Z,2.63
2022-09-23T06:33:42.354Z,4.70
2022-09-23T06:36:11.239Z,3.90
2022-09-23T06:38:40.315Z,2.90
2022-09-23T06:41:08.297Z,2.63
2022-09-23T06:43:37.274Z,5.00
2022-09-23T06:46:07.235Z,5.60
2022-09-23T06:48:36.087Z,4.50
2022-09-23T06:51:07.313Z,5.20
2022-09-23T06:53:35.456Z,3.77
2022-09-23T06:56:05.534Z,3.13
2022-09-23T06:58:34.732Z,2.73
2022-09-23T07:01:05.057Z,6.33
2022-09-23T07:03:32.714Z,2.17
2022-09-23T07:06:01.287Z,7.57
2022-09-23T07:08:30.402Z,3.37
2022-09-23T07:10:59.790Z,3.23
2022-09-23T07:13:29.421Z,3.50
2022-09-23T07:16:00.294Z,5.10
2022-09-23T07:18:36.197Z,5.00
2022-09-23T07:21:09.828Z,4.40
2022-09-23T07:23:38.764Z,3.10
2022-09-23T07:26:07.768Z,2.90
2022-09-23T07:28:36.986Z,2.50
2022-09-23T07:31:07.776Z,3.20
2022-09-23T07:33:38.399Z,3.07
2022-09-23T07:36:08.148Z,3.73
2022-09-23T07:38:36.185Z,3.30
2022-09-23T07:41:05.261Z,5.00
2022-09-23T07:43:33.592Z,2.50
2022-09-23T07:46:03.174Z,5.20
2022-09-23T07:48:34.432Z,7.00
2022-09-23T07:51:07.788Z,5.73
2022-09-23T07:53:35.662Z,3.33
2022-09-23T07:56:06.405Z,3.73
2022-09-23T07:58:35.274Z,3.03
2022-09-23T08:01:05.713Z,3.60
2022-09-23T08:03:33.502Z,4.53
2022-09-23T08:06:07.768Z,3.77
2022-09-23T08:08:35.461Z,4.83
2022-09-23T08:11:04.191Z,5.87
2022-09-23T08:13:32.776Z,3.50
2022-09-23T08:16:00.445Z,2.43
2022-09-23T08:18:28.216Z,3.63
2022-09-23T08:20:55.848Z,4.93
2022-09-23T08:23:24.884Z,3.00
2022-09-23T08:25:59.872Z,4.00
2022-09-23T08:28:28.080Z,4.23
2022-09-23T08:30:55.811Z,4.30
2022-09-23T08:33:24.502Z,6.03
2022-09-23T08:35:52.488Z,4.90
2022-09-23T08:38:21.407Z,3.00
2022-09-23T08:40:51.336Z,4.30
2022-09-23T08:43:25.868Z,2.27
2022-09-23T08:45:55.667Z,2.20
2022-09-23T08:48:30.161Z,2.73
2022-09-23T08:51:05.358Z,2.17
2022-09-23T08:53:35.932Z,4.13
2022-09-23T08:56:10.415Z,5.37
2022-09-23T08:58:52.239Z,3.73
2022-09-23T09:01:24.304Z,1.93
2022-09-23T09:03:54.848Z,2.33
2022-09-23T09:06:29.790Z,4.23
2022-09-23T09:09:00.859Z,2.23
2022-09-23T09:11:36.865Z,2.77
2022-09-23T09:14:16.565Z,2.10
2022-09-23T09:17:00.712Z,3.90
2022-09-23T09:19:52.934Z,3.00
2022-09-23T09:22:24.896Z,2.00
2022-09-23T09:25:02.450Z,2.00
2022-09-23T09:27:31.717Z,2.77
2022-09-23T09:30:01.509Z,2.50
2022-09-23T09:32:37.797Z,3.00
2022-09-23T09:35:19.636Z,3.33
2022-09-23T09:37:48.840Z,5.43
2022-09-23T09:40:17.970Z,3.43
2022-09-23T09:42:49.542Z,2.50
2022-09-23T09:45:30.011Z,3.27
2022-09-23T09:48:07.431Z,2.10
2022-09-23T09:50:49.272Z,3.23
2022-09-23T09:53:23.976Z,3.20
2022-09-23T09:56:05.058Z,7.40
2022-09-23T09:58:45.116Z,3.80
2022-09-23T10:01:24.260Z,6.03
2022-09-23T10:03:55.684Z,3.73
2022-09-23T10:06:28.280Z,3.50
2022-09-23T10:09:20.445Z,6.20
2022-09-23T10:12:04.579Z,6.20
2022-09-23T10:14:33.609Z,3.33
2022-09-23T10:17:07.162Z,1.83
2022-09-23T10:19:37.859Z,4.80
2022-09-23T10:22:17.589Z,4.57
2022-09-23T10:24:50.568Z,1.67
2022-09-23T10:27:27.888Z,3.73
2022-09-23T10:30:00.149Z,3.80
2022-09-23T10:32:30.635Z,4.20
2022-09-23T10:35:02.510Z,3.33
2022-09-23T10:37:36.852Z,3.40
2022-09-23T10:40:34.101Z,2.70
2022-09-23T10:43:33.518Z,3.40
2022-09-23T10:46:23.013Z,4.50
2022-09-23T10:49:08.884Z,3.60
2022-09-23T10:51:45.528Z,5.63
2022-09-23T10:54:22.187Z,3.90
2022-09-23T10:56:54.118Z,4.53
2022-09-23T10:59:51.556Z,3.57
2022-09-23T11:02:42.886Z,3.10
2022-09-23T11:05:34.941Z,4.73
2022-09-23T11:08:18.216Z,5.10
2022-09-23T11:10:57.783Z,3.43
2022-09-23T11:13:42.332Z,6.80
2022-09-23T11:16:23.045Z,4.97
2022-09-23T11:19:15.937Z,2.43
2022-09-23T11:22:08.199Z,5.90
2022-09-23T11:25:13.166Z,3.93
2022-09-23T11:27:55.188Z,4.40
2022-09-23T11:30:23.014Z,2.63
2022-09-23T11:33:16.373Z,4.00
2022-09-23T11:35:51.265Z,3.27
2022-09-23T11:38:25.844Z,5.07
2022-09-23T11:40:57.282Z,3.00
2022-09-23T11:43:28.610Z,3.90
2022-09-23T11:46:00.381Z,2.07
2022-09-23T11:48:36.998Z,2.53
2022-09-23T11:51:12.021Z,3.53
2022-09-23T11:53:45.822Z,4.30
2022-09-23T11:56:33.606Z,6.23
2022-09-23T11:59:09.939Z,2.53
2022-09-23T12:01:45.780Z,3.57
2022-09-23T12:04:21.582Z,5.07
2022-09-23T12:06:57.784Z,2.90
2022-09-23T12:09:53.985Z,1.97
2022-09-23T12:12:27.144Z,1.93
2022-09-23T12:15:02.511Z,2.27
2022-09-23T12:18:01.751Z,3.33
2022-09-23T12:20:54.574Z,2.83
2022-09-23T12:23:38.513Z,3.87
2022-09-23T12:26:10.382Z,2.30
2022-09-23T12:28:44.394Z,3.10
2022-09-23T12:31:15.499Z,3.83
2022-09-23T12:33:50.451Z,2.10
2022-09-23T12:36:26.686Z,5.23
2022-09-23T12:39:01.795Z,2.07
2022-09-23T12:41:35.278Z,2.30
2022-09-23T12:44:16.204Z,2.17
2022-09-23T12:46:44.857Z,4.80
2022-09-23T12:49:36.726Z,4.60
2022-09-23T12:52:25.015Z,12.13
2022-09-23T12:54:57.512Z,4.70
2022-09-23T12:57:42.027Z,2.07
2022-09-23T13:00:23.620Z,1.93
2022-09-23T13:03:15.923Z,2.40
2022-09-23T13:06:04.564Z,4.03
2022-09-23T13:08:36.499Z,2.50
2022-09-23T13:11:08.914Z,2.40
2022-09-23T13:13:39.667Z,3.20
2022-09-23T13:16:13.574Z,2.93
2022-09-23T13:18:59.783Z,3.67
2022-09-23T13:22:13.337Z,4.50
2022-09-23T13:24:46.592Z,4.30
2022-09-23T13:27:20.762Z,4.20
2022-09-23T13:29:54.490Z,2.37
2022-09-23T13:32:27.633Z,5.10
2022-09-23T13:34:59.227Z,4.47
2022-09-23T13:37:42.213Z,4.00
2022-09-23T13:40:17.752Z,5.13
2022-09-23T13:42:51.147Z,3.30
2022-09-23T13:45:22.109Z,4.73
2022-09-23T13:47:51.431Z,3.50
2022-09-23T13:50:21.791Z,4.07
2022-09-23T13:52:53.539Z,4.20
2022-09-23T13:55:31.482Z,4.20
2022-09-23T13:58:03.910Z,4.47
2022-09-23T14:00:37.308Z,6.63
2022-09-23T14:03:17.886Z,5.27
2022-09-23T14:05:46.552Z,6.00
2022-09-23T14:08:14.279Z,5.47
2022-09-23T14:10:44.899Z,3.90
2022-09-23T14:13:21.298Z,5.90
2022-09-23T14:15:55.798Z,2.90
2022-09-23T14:18:29.876Z,4.27
2022-09-23T14:20:57.498Z,4.37
2022-09-23T14:23:25.153Z,4.93
2022-09-23T14:25:53.893Z,5.30
2022-09-23T14:28:24.953Z,3.03
2022-09-23T14:30:56.680Z,2.80
2022-09-23T14:33:28.228Z,5.73
2022-09-23T14:36:02.710Z,5.03
2022-09-23T14:38:49.231Z,2.50
2022-09-23T14:41:23.873Z,3.23
2022-09-23T14:43:59.235Z,4.20
2022-09-23T14:46:28.380Z,5.00
2022-09-23T14:48:59.507Z,4.20
2022-09-23T14:51:38.540Z,3.83
2022-09-23T14:54:32.322Z,3.60
2022-09-23T14:57:00.971Z,5.07
2022-09-23T14:59:35.612Z,3.77
2022-09-23T15:02:03.785Z,4.60
2022-09-23T15:04:34.883Z,4.70
2022-09-23T15:07:16.464Z,2.77
2022-09-23T15:09:46.003Z,6.07
2022-09-23T15:12:17.064Z,4.93
2022-09-23T15:14:50.541Z,7.27
2022-09-23T15:17:30.328Z,5.00
2022-09-23T15:20:01.609Z,7.90
2022-09-23T15:22:29.403Z,3.67
2022-09-23T15:25:12.215Z,4.80
2022-09-23T15:27:40.761Z,4.53
2022-09-23T15:30:18.574Z,3.40
2022-09-23T15:32:47.223Z,2.60
2022-09-23T15:35:16.715Z,5.50
2022-09-23T15:37:44.738Z,3.00
2022-09-23T15:40:20.587Z,4.97
2022-09-23T15:42:52.355Z,4.77
2022-09-23T15:45:27.223Z,4.63
2022-09-23T15:47:55.668Z,4.90
2022-09-23T15:50:23.294Z,3.00
2022-09-23T15:52:50.905Z,4.27
2022-09-23T15:55:21.225Z,7.70
2022-09-23T15:57:48.836Z,8.13
2022-09-23T16:00:17.415Z,5.73
2022-09-23T16:02:48.498Z,4.10
2022-09-23T16:05:22.592Z,7.53
2022-09-23T16:07:52.321Z,11.07
2022-09-23T16:10:21.978Z,3.93
2022-09-23T16:12:50.082Z,4.63
2022-09-23T16:15:20.383Z,8.03
2022-09-23T16:17:49.360Z,6.07
2022-09-23T16:20:18.027Z,7.47
2022-09-23T16:22:52.050Z,4.30
2022-09-23T16:25:19.821Z,4.67
2022-09-23T16:27:47.487Z,3.37
2022-09-23T16:30:15.094Z,5.60
2022-09-23T16:32:43.232Z,4.43
2022-09-23T16:35:12.190Z,7.33
2022-09-23T16:37:39.785Z,7.93
2022-09-23T16:40:09.721Z,4.93
2022-09-23T16:42:38.255Z,5.63
2022-09-23T16:45:06.907Z,4.13
2022-09-23T16:47:34.530Z,6.37
2022-09-23T16:50:02.332Z,5.37
2022-09-23T16:52:31.371Z,5.00
2022-09-23T16:54:59.031Z,9.27
2022-09-23T16:57:27.922Z,5.83
2022-09-23T17:00:13.059Z,8.13
2022-09-23T17:02:58.141Z,5.07
2022-09-23T17:05:27.402Z,3.90
2022-09-23T17:07:56.357Z,6.53
2022-09-23T17:10:23.967Z,8.00
2022-09-23T17:12:54.369Z,6.93
2022-09-23T17:15:21.975Z,8.20
2022-09-23T17:17:49.854Z,5.63
2022-09-23T17:20:17.504Z,5.70
2022-09-23T17:22:45.079Z,6.03
2022-09-23T17:25:14.031Z,6.33
2022-09-23T17:27:41.619Z,4.50
2022-09-23T17:30:10.746Z,6.03
2022-09-23T17:32:38.333Z,6.93
2022-09-23T17:35:06.791Z,7.30
2022-09-23T17:37:34.892Z,4.90
2022-09-23T17:40:03.158Z,4.33
2022-09-23T17:42:32.364Z,7.90
2022-09-23T17:45:00.167Z,4.03
2022-09-23T17:47:27.930Z,4.37
2022-09-23T17:49:56.178Z,4.20
2022-09-23T17:52:23.799Z,5.37
2022-09-23T17:54:51.380Z,5.53
2022-09-23T17:57:18.982Z,3.80
2022-09-23T17:59:50.564Z,5.80
2022-09-23T18:02:19.681Z,4.37
2022-09-23T18:04:47.423Z,4.10
2022-09-23T18:07:15.179Z,7.00
2022-09-23T18:09:42.777Z,5.43
2022-09-23T18:12:10.371Z,7.27
2022-09-23T18:14:37.944Z,5.47
2022-09-23T18:17:06.988Z,7.80
2022-09-23T18:19:34.546Z,6.43
2022-09-23T18:22:02.845Z,10.27
2022-09-23T18:24:33.435Z,9.00
2022-09-23T18:27:01.882Z,5.90
2022-09-23T18:29:29.540Z,6.17
2022-09-23T18:31:58.711Z,7.37
2022-09-23T18:34:28.484Z,7.13
2022-09-23T18:36:56.448Z,12.67
2022-09-23T18:39:24.098Z,8.83
2022-09-23T18:41:51.728Z,9.03
2022-09-23T18:44:19.919Z,6.67
2022-09-23T18:46:47.505Z,8.93
2022-09-23T18:49:32.565Z,7.90
2022-09-23T18:52:01.919Z,9.17
2022-09-23T18:54:30.250Z,9.27
2022-09-23T18:56:59.163Z,6.33
2022-09-23T18:59:29.613Z,8.73
2022-09-23T19:01:58.204Z,9.10
2022-09-23T19:04:27.537Z,12.73
2022-09-23T19:06:56.547Z,9.83
2022-09-23T19:09:26.036Z,7.47
2022-09-23T19:11:54.202Z,12.87
2022-09-23T19:14:22.223Z,9.77
2022-09-23T19:16:50.811Z,10.63
2022-09-23T19:19:18.429Z,9.33
2022-09-23T19:21:46.132Z,9.23
2022-09-23T19:24:15.779Z,8.13
2022-09-23T19:26:45.376Z,8.97
2022-09-23T19:29:16.475Z,8.53
2022-09-23T19:31:44.386Z,8.70
2022-09-23T19:34:15.041Z,5.80
2022-09-23T19:36:44.225Z,7.50
2022-09-23T19:39:19.340Z,9.47
2022-09-23T19:41:49.412Z,6.70
2022-09-23T19:44:17.416Z,6.43
2022-09-23T19:46:53.641Z,10.43
2022-09-23T19:49:24.485Z,6.47
2022-09-23T19:51:55.024Z,8.13
2022-09-23T19:54:22.591Z,8.10
2022-09-23T19:56:51.727Z,8.60
2022-09-23T19:59:19.711Z,10.63
2022-09-23T20:01:47.736Z,9.63
2022-09-23T20:04:16.077Z,8.13
2022-09-23T20:06:43.864Z,9.43
2022-09-23T20:09:11.446Z,8.40
2022-09-23T20:11:40.505Z,9.70
2022-09-23T20:14:11.813Z,8.67
2022-09-23T20:16:40.307Z,7.90
2022-09-23T20:19:07.933Z,5.53
2022-09-23T20:21:35.839Z,6.20
2022-09-23T20:24:06.407Z,8.93
2022-09-23T20:26:51.480Z,9.37
2022-09-23T20:29:20.471Z,8.87
2022-09-23T20:31:48.464Z,10.07
2022-09-23T20:34:16.098Z,12.63
2022-09-23T20:36:44.136Z,9.20
2022-09-23T20:39:11.747Z,12.90
2022-09-23T20:41:40.061Z,9.10
2022-09-23T20:44:12.133Z,10.47
2022-09-23T20:46:46.955Z,6.83
2022-09-23T20:49:16.166Z,7.70
2022-09-23T20:51:43.753Z,6.83
2022-09-23T20:54:12.040Z,10.30
2022-09-23T20:56:39.733Z,7.57
2022-09-23T20:59:07.345Z,9.43
2022-09-23T21:01:36.398Z,6.93
2022-09-23T21:04:06.719Z,7.20
2022-09-23T21:06:35.587Z,5.63
2022-09-23T21:09:03.942Z,6.73
2022-09-23T21:11:31.916Z,6.53
2022-09-23T21:14:01.049Z,8.17
2022-09-23T21:16:28.948Z,8.20
2022-09-23T21:18:56.759Z,7.50
2022-09-23T21:21:26.239Z,6.00
2022-09-23T21:23:53.817Z,7.90
2022-09-23T21:26:23.322Z,6.73
2022-09-23T21:28:52.456Z,9.30
2022-09-23T21:31:25.326Z,10.30
2022-09-23T21:33:54.398Z,8.00
2022-09-23T21:36:24.485Z,15.33
2022-09-23T21:38:53.885Z,11.20
2022-09-23T21:41:21.546Z,11.27
2022-09-23T21:43:49.653Z,13.30
2022-09-23T21:46:20.713Z,12.30
2022-09-23T21:48:52.828Z,10.20
2022-09-23T21:51:22.934Z,13.83
2022-09-23T21:53:50.585Z,11.60
2022-09-23T21:56:21.490Z,11.87
2022-09-23T21:58:49.860Z,9.33
2022-09-23T22:01:19.079Z,12.70
2022-09-23T22:03:50.865Z,10.13
2022-09-23T22:06:21.218Z,11.83
2022-09-23T22:08:50.892Z,15.57
2022-09-23T22:11:38.559Z,12.37
2022-09-23T22:14:08.116Z,9.80
2022-09-23T22:16:36.733Z,12.03
2022-09-23T22:19:06.850Z,11.93
2022-09-23T22:21:37.973Z,11.67
2022-09-23T22:24:07.723Z,11.70
2022-09-23T22:26:38.505Z,10.10
2022-09-23T22:29:39.413Z,8.50
2022-09-23T22:32:29.662Z,6.93
2022-09-23T22:34:57.284Z,11.70
2022-09-23T22:37:27.281Z,6.27
2022-09-23T22:39:55.839Z,7.47
2022-09-23T22:42:24.900Z,6.30
2022-09-23T22:44:52.634Z,9.20
2022-09-23T22:47:20.853Z,7.50
2022-09-23T22:49:48.905Z,8.23
2022-09-23T22:52:21.093Z,11.57
2022-09-23T22:54:48.967Z,9.00
2022-09-23T22:57:16.725Z,6.37
2022-09-23T22:59:48.030Z,12.57
2022-09-23T23:02:16.571Z,10.00
2022-09-23T23:04:45.352Z,10.20
2022-09-23T23:07:14.279Z,9.13
2022-09-23T23:09:41.984Z,10.13
2022-09-23T23:12:09.580Z,6.70
2022-09-23T23:14:37.688Z,11.20
2022-09-23T23:17:07.480Z,7.33
2022-09-23T23:19:35.757Z,6.40
2022-09-23T23:22:03.447Z,8.43
2022-09-23T23:24:31.055Z,7.13
2022-09-23T23:26:58.827Z,6.43
2022-09-23T23:29:27.681Z,7.33
2022-09-23T23:31:55.553Z,6.23
2022-09-23T23:34:24.551Z,9.40
2022-09-23T23:36:54.734Z,10.40
2022-09-23T23:39:24.426Z,9.63
2022-09-23T23:41:53.933Z,6.37
2022-09-23T23:44:22.439Z,7.57
2022-09-23T23:46:50.327Z,9.23
2022-09-23T23:49:17.945Z,11.07
2022-09-23T23:51:47.758Z,9.10
2022-09-23T23:54:16.043Z,6.53
2022-09-23T23:56:43.877Z,9.30
2022-09-23T23:59:11.827Z,9.10
